createdAt,value
2016-02-06T00:00:29.264Z,0
2016-02-06T00:01:29.252Z,0
2016-02-06T00:02:29.239Z,0
2016-02-06T00:03:29.242Z,0
2016-02-06T00:04:29.027Z,0
2016-02-06T00:05:29.154Z,0
2016-02-06T00:06:29.156Z,0
2016-02-06T00:07:29.116Z,0
2016-02-06T00:08:29.102Z,0
2016-02-06T00:09:29.074Z,0
2016-02-06T00:10:29.045Z,0
2016-02-06T00:11:29.048Z,0
2016-02-06T00:12:29.004Z,0
2016-02-06T00:13:28.991Z,0
2016-02-06T00:14:28.963Z,0
2016-02-06T00:15:28.935Z,0
2016-02-06T00:16:28.938Z,0
2016-02-06T00:17:28.909Z,0
2016-02-06T00:18:28.865Z,0
2016-02-06T00:19:28.852Z,0
2016-02-06T00:20:28.825Z,0
2016-02-06T00:21:28.812Z,0
2016-02-06T00:22:28.783Z,0
2016-02-06T00:23:28.754Z,0
2016-02-06T00:24:28.742Z,0
2016-02-06T00:25:28.714Z,0
2016-02-06T00:26:28.684Z,0
2016-02-06T00:27:28.673Z,0
2016-02-06T00:28:28.643Z,0
2016-02-06T00:29:28.631Z,0
2016-02-06T00:30:28.602Z,0
2016-02-06T00:31:28.574Z,0
2016-02-06T00:32:28.545Z,0
2016-02-06T00:33:28.533Z,0
2016-02-06T00:34:28.509Z,0
2016-02-06T00:35:28.481Z,0
2016-02-06T00:36:28.468Z,0
2016-02-06T00:37:28.456Z,0
2016-02-06T00:38:28.427Z,0
2016-02-06T00:39:28.399Z,0
2016-02-06T00:40:28.370Z,0
2016-02-06T00:41:28.357Z,0
2016-02-06T00:42:28.328Z,0
2016-02-06T00:43:28.316Z,0
2016-02-06T00:44:28.287Z,0
2016-02-06T00:45:28.259Z,0
2016-02-06T00:46:28.233Z,0
2016-02-06T00:47:28.221Z,0
2016-02-06T00:48:28.193Z,0
2016-02-06T00:49:28.163Z,0
2016-02-06T00:50:28.151Z,0
2016-02-06T00:51:28.138Z,0
2016-02-06T00:52:28.109Z,0
2016-02-06T00:53:28.082Z,0
2016-02-06T00:54:28.053Z,0
2016-02-06T00:55:28.024Z,0
2016-02-06T00:56:28.011Z,0
2016-02-06T00:57:27.983Z,0
2016-02-06T00:58:27.970Z,0
2016-02-06T00:59:27.973Z,0
2016-02-06T01:00:27.913Z,0
2016-02-06T01:01:27.899Z,0
2016-02-06T01:02:27.887Z,0
2016-02-06T01:03:27.858Z,0
2016-02-06T01:04:27.829Z,0
2016-02-06T01:05:27.822Z,0
2016-02-06T01:06:27.811Z,0
2016-02-06T01:07:27.750Z,0
2016-02-06T01:08:27.738Z,0
2016-02-06T01:09:27.725Z,0
2016-02-06T01:10:27.713Z,0
2016-02-06T01:11:27.669Z,0
2016-02-06T01:12:27.639Z,0
2016-02-06T01:13:27.641Z,0
2016-02-06T01:14:27.615Z,0
2016-02-06T01:15:27.570Z,0
2016-02-06T01:16:27.542Z,0
2016-02-06T01:17:27.549Z,0
2016-02-06T01:18:27.521Z,0
2016-02-06T01:19:27.477Z,0
2016-02-06T01:20:27.463Z,0
2016-02-06T01:21:27.451Z,0
2016-02-06T01:22:27.407Z,0
2016-02-06T01:23:27.393Z,0
2016-02-06T01:24:27.380Z,0
2016-02-06T01:25:27.352Z,0
2016-02-06T01:26:27.323Z,0
2016-02-06T01:27:27.297Z,0
2016-02-06T01:28:27.284Z,0
2016-02-06T01:29:27.255Z,0
2016-02-06T01:30:27.242Z,0
2016-02-06T01:31:27.213Z,0
2016-02-06T01:32:27.185Z,0
2016-02-06T01:33:27.163Z,0
2016-02-06T01:34:27.153Z,0
2016-02-06T01:35:27.123Z,0
2016-02-06T01:36:27.095Z,0
2016-02-06T01:37:27.081Z,0
2016-02-06T01:38:27.084Z,0
2016-02-06T01:39:27.025Z,0
2016-02-06T01:40:27.012Z,0
2016-02-06T01:41:26.999Z,0
2016-02-06T01:42:26.955Z,0
2016-02-06T01:43:26.941Z,0
2016-02-06T01:44:26.945Z,0
2016-02-06T01:45:26.900Z,0
2016-02-06T01:46:26.872Z,0
2016-02-06T01:47:26.843Z,0
2016-02-06T01:48:26.830Z,0
2016-02-06T01:49:26.802Z,0
2016-02-06T01:50:26.789Z,0
2016-02-06T01:51:26.776Z,0
2016-02-06T01:52:26.732Z,0
2016-02-06T01:53:26.718Z,0
2016-02-06T01:54:26.690Z,0
2016-02-06T01:55:26.677Z,0
2016-02-06T01:56:26.633Z,0
2016-02-06T01:57:26.620Z,0
2016-02-06T01:58:26.607Z,0
2016-02-06T01:59:26.562Z,0
2016-02-06T02:00:26.552Z,0
2016-02-06T02:01:26.522Z,0
2016-02-06T02:02:26.525Z,0
2016-02-06T02:03:26.481Z,0
2016-02-06T02:04:26.453Z,0
2016-02-06T02:05:26.425Z,0
2016-02-06T02:06:26.412Z,0
2016-02-06T02:07:26.383Z,0
2016-02-06T02:08:26.370Z,0
2016-02-06T02:09:26.357Z,0
2016-02-06T02:10:26.314Z,0
2016-02-06T02:11:26.285Z,0
2016-02-06T02:12:26.272Z,0
2016-02-06T02:13:26.246Z,0
2016-02-06T02:14:26.218Z,0
2016-02-06T02:15:26.220Z,0
2016-02-06T02:16:26.176Z,0
2016-02-06T02:17:26.147Z,0
2016-02-06T02:18:26.149Z,0
2016-02-06T02:19:26.106Z,0
2016-02-06T02:20:26.077Z,0
2016-02-06T02:21:26.065Z,0
2016-02-06T02:22:26.051Z,0
2016-02-06T02:23:26.007Z,0
2016-02-06T02:24:25.978Z,0
2016-02-06T02:25:25.965Z,0
2016-02-06T02:26:25.942Z,0
2016-02-06T02:27:25.913Z,0
2016-02-06T02:28:25.900Z,0
2016-02-06T02:29:25.886Z,0
2016-02-06T02:30:25.827Z,0
2016-02-06T02:31:25.804Z,0
2016-02-06T02:32:25.808Z,0
2016-02-06T02:33:25.792Z,0
2016-02-06T02:34:25.764Z,0
2016-02-06T02:35:25.720Z,0
2016-02-06T02:36:25.722Z,0
2016-02-06T02:37:25.662Z,0
2016-02-06T02:38:25.649Z,0
2016-02-06T02:39:25.653Z,0
2016-02-06T02:40:25.624Z,0
2016-02-06T02:41:25.582Z,0
2016-02-06T02:42:25.552Z,0
2016-02-06T02:43:25.540Z,0
2016-02-06T02:44:25.510Z,0
2016-02-06T02:45:25.482Z,0
2016-02-06T02:46:25.486Z,0
2016-02-06T02:47:25.458Z,0
2016-02-06T02:48:25.413Z,0
2016-02-06T02:49:25.385Z,0
2016-02-06T02:50:25.387Z,0
2016-02-06T02:51:25.359Z,0
2016-02-06T02:52:25.315Z,0
2016-02-06T02:53:25.286Z,0
2016-02-06T02:54:25.273Z,0
2016-02-06T02:55:25.245Z,0
2016-02-06T02:56:25.215Z,0
2016-02-06T02:57:25.188Z,0
2016-02-06T02:58:25.174Z,0
2016-02-06T02:59:24.991Z,0
2016-02-06T03:00:25.165Z,0
2016-02-06T03:01:25.105Z,0
2016-02-06T03:02:25.077Z,0
2016-02-06T03:03:25.069Z,0
2016-02-06T03:04:25.040Z,0
2016-02-06T03:05:25.012Z,0
2016-02-06T03:06:24.998Z,0
2016-02-06T03:07:24.972Z,0
2016-02-06T03:08:24.928Z,0
2016-02-06T03:09:24.899Z,0
2016-02-06T03:10:24.902Z,0
2016-02-06T03:11:24.889Z,0
2016-02-06T03:12:24.908Z,0
2016-02-06T03:13:24.801Z,0
2016-02-06T03:14:24.789Z,0
2016-02-06T03:15:24.761Z,0
2016-02-06T03:16:24.748Z,0
2016-02-06T03:17:24.721Z,0
2016-02-06T03:18:24.691Z,0
2016-02-06T03:19:24.679Z,0
2016-02-06T03:20:24.651Z,0
2016-02-06T03:21:24.623Z,0
2016-02-06T03:22:24.610Z,0
2016-02-06T03:23:24.567Z,0
2016-02-06T03:24:24.537Z,0
2016-02-06T03:25:24.525Z,0
2016-02-06T03:26:24.496Z,0
2016-02-06T03:27:24.499Z,0
2016-02-06T03:28:24.440Z,0
2016-02-06T03:29:24.427Z,0
2016-02-06T03:30:24.398Z,0
2016-02-06T03:31:24.385Z,0
2016-02-06T03:32:24.358Z,0
2016-02-06T03:33:24.331Z,0
2016-02-06T03:34:24.317Z,0
2016-02-06T03:35:24.274Z,0
2016-02-06T03:36:24.276Z,0
2016-02-06T03:37:24.234Z,0
2016-02-06T03:38:24.220Z,0
2016-02-06T03:39:24.175Z,0
2016-02-06T03:40:24.150Z,0
2016-02-06T03:41:24.137Z,0
2016-02-06T03:42:24.124Z,0
2016-02-06T03:43:24.081Z,0
2016-02-06T03:44:24.067Z,0
2016-02-06T03:45:24.039Z,0
2016-02-06T03:46:24.010Z,0
2016-02-06T03:47:23.997Z,0
2016-02-06T03:48:23.969Z,0
2016-02-06T03:49:23.940Z,0
2016-02-06T03:50:23.911Z,0
2016-02-06T03:51:23.883Z,0
2016-02-06T03:52:23.870Z,0
2016-02-06T03:53:23.844Z,0
2016-02-06T03:54:23.816Z,0
2016-02-06T03:55:23.787Z,0
2016-02-06T03:56:23.774Z,0
2016-02-06T03:57:23.761Z,0
2016-02-06T03:58:23.717Z,0
2016-02-06T03:59:23.704Z,0
2016-02-06T04:00:23.660Z,0
2016-02-06T04:01:23.637Z,0
2016-02-06T04:02:23.608Z,0
2016-02-06T04:03:23.596Z,0
2016-02-06T04:04:23.583Z,0
2016-02-06T04:05:23.538Z,0
2016-02-06T04:06:23.513Z,0
2016-02-06T04:07:23.500Z,0
2016-02-06T04:08:23.472Z,0
2016-02-06T04:09:23.458Z,0
2016-02-06T04:10:23.430Z,0
2016-02-06T04:11:23.417Z,0
2016-02-06T04:12:23.389Z,0
2016-02-06T04:13:23.375Z,0
2016-02-06T04:14:23.318Z,0
2016-02-06T04:15:23.304Z,0
2016-02-06T04:16:23.276Z,0
2016-02-06T04:17:23.248Z,0
2016-02-06T04:18:23.235Z,0
2016-02-06T04:19:23.209Z,0
2016-02-06T04:20:23.196Z,0
2016-02-06T04:21:23.153Z,0
2016-02-06T04:22:23.125Z,0
2016-02-06T04:23:23.111Z,0
2016-02-06T04:24:23.084Z,0
2016-02-06T04:25:23.055Z,0
2016-02-06T04:26:23.058Z,0
2016-02-06T04:27:23.013Z,0
2016-02-06T04:28:22.985Z,0
2016-02-06T04:29:22.974Z,0
2016-02-06T04:30:22.930Z,0
2016-02-06T04:31:22.917Z,0
2016-02-06T04:32:22.888Z,0
2016-02-06T04:33:22.860Z,0
2016-02-06T04:34:22.847Z,0
2016-02-06T04:35:22.818Z,0
2016-02-06T04:36:22.806Z,0
2016-02-06T04:37:22.761Z,0
2016-02-06T04:38:22.733Z,0
2016-02-06T04:39:22.721Z,0
2016-02-06T04:40:22.693Z,0
2016-02-06T04:41:22.679Z,0
2016-02-06T04:42:22.651Z,0
2016-02-06T04:43:22.638Z,0
2016-02-06T04:44:22.594Z,0
2016-02-06T04:45:22.581Z,0
2016-02-06T04:46:22.552Z,0
2016-02-06T04:47:22.524Z,0
2016-02-06T04:48:22.496Z,0
2016-02-06T04:49:22.468Z,0
2016-02-06T04:50:22.455Z,0
2016-02-06T04:51:22.426Z,0
2016-02-06T04:52:22.399Z,0
2016-02-06T04:53:22.387Z,0
2016-02-06T04:54:22.358Z,0
2016-02-06T04:55:22.332Z,0
2016-02-06T04:56:22.304Z,0
2016-02-06T04:57:22.275Z,0
2016-02-06T04:58:22.117Z,0
2016-02-06T04:59:22.229Z,0
2016-02-06T05:00:22.216Z,0
2016-02-06T05:01:22.171Z,0
2016-02-06T05:02:22.159Z,0
2016-02-06T05:03:22.130Z,0
2016-02-06T05:04:22.118Z,0
2016-02-06T05:05:22.073Z,0
2016-02-06T05:06:22.060Z,0
2016-02-06T05:07:21.875Z,0
2016-02-06T05:08:22.005Z,0
2016-02-06T05:09:21.976Z,0
2016-02-06T05:10:21.948Z,0
2016-02-06T05:11:21.935Z,0
2016-02-06T05:12:21.907Z,0
2016-02-06T05:13:21.894Z,0
2016-02-06T05:14:21.866Z,0
2016-02-06T05:15:21.837Z,0
2016-02-06T05:16:21.809Z,0
2016-02-06T05:17:21.780Z,0
2016-02-06T05:18:21.767Z,0
2016-02-06T05:19:21.738Z,0
2016-02-06T05:20:21.742Z,0
2016-02-06T05:21:21.682Z,0
2016-02-06T05:22:21.669Z,0
2016-02-06T05:23:21.641Z,0
2016-02-06T05:24:21.612Z,0
2016-02-06T05:25:21.600Z,0
2016-02-06T05:26:21.559Z,0
2016-02-06T05:27:21.530Z,0
2016-02-06T05:28:21.517Z,0
2016-02-06T05:29:21.499Z,0
2016-02-06T05:30:21.472Z,0
2016-02-06T05:31:21.443Z,0
2016-02-06T05:32:21.414Z,0
2016-02-06T05:33:21.387Z,0
2016-02-06T05:34:21.375Z,0
2016-02-06T05:35:21.346Z,0
2016-02-06T05:36:21.318Z,0
2016-02-06T05:37:21.289Z,0
2016-02-06T05:38:21.260Z,0
2016-02-06T05:39:21.247Z,0
2016-02-06T05:40:21.220Z,0
2016-02-06T05:41:21.209Z,0
2016-02-06T05:42:21.164Z,0
2016-02-06T05:43:21.152Z,0
2016-02-06T05:44:21.123Z,0
2016-02-06T05:45:21.095Z,0
2016-02-06T05:46:21.067Z,0
2016-02-06T05:47:21.039Z,0
2016-02-06T05:48:21.026Z,0
2016-02-06T05:49:20.998Z,0
2016-02-06T05:50:20.985Z,0
2016-02-06T05:51:20.941Z,0
2016-02-06T05:52:20.928Z,0
2016-02-06T05:53:20.915Z,0
2016-02-06T05:54:20.873Z,0
2016-02-06T05:55:20.844Z,0
2016-02-06T05:56:20.831Z,0
2016-02-06T05:57:20.787Z,0
2016-02-06T05:58:20.770Z,0
2016-02-06T05:59:20.759Z,0
2016-02-06T06:00:20.715Z,0
2016-02-06T06:01:20.718Z,0
2016-02-06T06:02:20.675Z,0
2016-02-06T06:03:20.647Z,0
2016-02-06T06:04:20.633Z,0
2016-02-06T06:05:20.605Z,0
2016-02-06T06:06:20.577Z,0
2016-02-06T06:07:20.549Z,0
2016-02-06T06:08:20.535Z,0
2016-02-06T06:09:20.491Z,0
2016-02-06T06:10:20.493Z,0
2016-02-06T06:11:20.449Z,0
2016-02-06T06:12:20.421Z,0
2016-02-06T06:13:20.393Z,0
2016-02-06T06:14:20.379Z,0
2016-02-06T06:15:20.351Z,0
2016-02-06T06:16:20.322Z,0
2016-02-06T06:17:20.310Z,0
2016-02-06T06:18:20.281Z,0
2016-02-06T06:19:20.268Z,0
2016-02-06T06:20:20.226Z,0
2016-02-06T06:21:20.199Z,0
2016-02-06T06:22:20.186Z,0
2016-02-06T06:23:20.158Z,0
2016-02-06T06:24:20.144Z,0
2016-02-06T06:25:19.944Z,0
2016-02-06T06:26:20.088Z,0
2016-02-06T06:27:20.048Z,0
2016-02-06T06:28:20.050Z,4
2016-02-06T06:29:20.006Z,4
2016-02-06T06:30:19.981Z,4
2016-02-06T06:31:19.952Z,0
2016-02-06T06:32:19.924Z,4
2016-02-06T06:33:19.912Z,4
2016-02-06T06:34:19.867Z,4
2016-02-06T06:35:19.854Z,4
2016-02-06T06:36:19.840Z,8
2016-02-06T06:37:19.812Z,8
2016-02-06T06:38:19.784Z,8
2016-02-06T06:39:19.756Z,8
2016-02-06T06:40:19.743Z,12
2016-02-06T06:41:19.715Z,16
2016-02-06T06:42:19.687Z,16
2016-02-06T06:43:19.658Z,24
2016-02-06T06:44:19.629Z,24
2016-02-06T06:45:19.601Z,32
2016-02-06T06:46:19.587Z,36
2016-02-06T06:47:19.575Z,44
2016-02-06T06:48:19.535Z,52
2016-02-06T06:49:19.505Z,56
2016-02-06T06:50:19.493Z,60
2016-02-06T06:51:19.465Z,68
2016-02-06T06:52:19.436Z,80
2016-02-06T06:53:19.409Z,88
2016-02-06T06:54:19.395Z,100
2016-02-06T06:55:19.351Z,112
2016-02-06T06:56:19.340Z,128
2016-02-06T06:57:20.108Z,136
2016-02-06T06:58:19.298Z,152
2016-02-06T06:59:19.270Z,168
2016-02-06T07:00:19.256Z,184
2016-02-06T07:01:19.223Z,200
2016-02-06T07:02:19.710Z,220
2016-02-06T07:03:19.980Z,236
2016-02-06T07:04:19.139Z,248
2016-02-06T07:05:19.111Z,272
2016-02-06T07:06:19.222Z,288
2016-02-06T07:07:19.070Z,308
2016-02-06T07:08:19.041Z,328
2016-02-06T07:09:19.013Z,352
2016-02-06T07:10:18.984Z,372
2016-02-06T07:11:18.972Z,396
2016-02-06T07:12:18.943Z,424
2016-02-06T07:13:18.915Z,452
2016-02-06T07:14:18.902Z,488
2016-02-06T07:15:18.873Z,524
2016-02-06T07:16:18.845Z,560
2016-02-06T07:17:18.957Z,596
2016-02-06T07:18:18.804Z,640
2016-02-06T07:19:18.776Z,680
2016-02-06T07:20:18.747Z,720
2016-02-06T07:21:18.719Z,760
2016-02-06T07:22:18.690Z,804
2016-02-06T07:23:18.694Z,844
2016-02-06T07:24:18.649Z,888
2016-02-06T07:25:18.637Z,932
2016-02-06T07:26:18.593Z,980
2016-02-06T07:27:18.566Z,1024
2016-02-06T07:28:18.538Z,1076
2016-02-06T07:29:18.527Z,1116
2016-02-06T07:30:18.498Z,1164
2016-02-06T07:31:18.485Z,1192
2016-02-06T07:32:18.456Z,1212
2016-02-06T07:33:18.416Z,1216
2016-02-06T07:34:18.419Z,1236
2016-02-06T07:35:18.375Z,1272
2016-02-06T07:36:18.346Z,1316
2016-02-06T07:37:18.334Z,1360
2016-02-06T07:38:18.305Z,1384
2016-02-06T07:39:18.917Z,1408
2016-02-06T07:40:18.248Z,1444
2016-02-06T07:41:18.235Z,1488
2016-02-06T07:42:18.206Z,1532
2016-02-06T07:43:18.178Z,1580
2016-02-06T07:44:18.165Z,1632
2016-02-06T07:45:17.968Z,1692
2016-02-06T07:46:18.127Z,1756
2016-02-06T07:47:18.083Z,1812
2016-02-06T07:48:18.851Z,1872
2016-02-06T07:49:18.682Z,1932
2016-02-06T07:50:18.438Z,2004
2016-02-06T07:51:17.974Z,2104
2016-02-06T07:52:17.929Z,2220
2016-02-06T07:53:17.899Z,2344
2016-02-06T07:54:17.855Z,2468
2016-02-06T07:55:17.810Z,2616
2016-02-06T07:56:17.773Z,2768
2016-02-06T07:57:17.739Z,2912
2016-02-06T07:58:17.719Z,3056
2016-02-06T07:59:17.685Z,3164
2016-02-06T08:00:17.669Z,3212
2016-02-06T08:01:17.638Z,3196
2016-02-06T08:02:17.607Z,3144
2016-02-06T08:03:17.580Z,3076
2016-02-06T08:04:17.564Z,3000
2016-02-06T08:05:17.520Z,2920
2016-02-06T08:06:17.490Z,2856
2016-02-06T08:07:17.476Z,2848
2016-02-06T08:08:17.449Z,2952
2016-02-06T08:09:17.435Z,3152
2016-02-06T08:10:17.406Z,3452
2016-02-06T08:11:17.377Z,3768
2016-02-06T08:12:17.363Z,4124
2016-02-06T08:13:17.335Z,4372
2016-02-06T08:14:17.306Z,4592
2016-02-06T08:15:17.293Z,4716
2016-02-06T08:16:17.264Z,4788
2016-02-06T08:17:17.235Z,4852
2016-02-06T08:18:17.206Z,4820
2016-02-06T08:19:17.194Z,4608
2016-02-06T08:20:17.206Z,4400
2016-02-06T08:21:17.153Z,4188
2016-02-06T08:22:17.160Z,3912
2016-02-06T08:23:17.113Z,3760
2016-02-06T08:24:16.912Z,3612
2016-02-06T08:25:17.056Z,3568
2016-02-06T08:26:17.027Z,3572
2016-02-06T08:27:17.014Z,3572
2016-02-06T08:28:16.970Z,3500
2016-02-06T08:29:16.957Z,3576
2016-02-06T08:30:16.929Z,3736
2016-02-06T08:31:16.916Z,3732
2016-02-06T08:32:16.877Z,4012
2016-02-06T08:33:16.879Z,4156
2016-02-06T08:34:16.821Z,4172
2016-02-06T08:35:16.808Z,4196
2016-02-06T08:36:16.794Z,4216
2016-02-06T08:37:16.766Z,4260
2016-02-06T08:38:16.737Z,4284
2016-02-06T08:39:16.709Z,4300
2016-02-06T08:40:16.680Z,4316
2016-02-06T08:41:16.661Z,4328
2016-02-06T08:42:16.632Z,4352
2016-02-06T08:43:16.618Z,4364
2016-02-06T08:44:16.590Z,4392
2016-02-06T08:45:16.578Z,4416
2016-02-06T08:46:16.564Z,4464
2016-02-06T08:47:16.508Z,4484
2016-02-06T08:48:16.494Z,4496
2016-02-06T08:49:16.466Z,4536
2016-02-06T08:50:16.453Z,4564
2016-02-06T08:51:16.440Z,4556
2016-02-06T08:52:16.413Z,4584
2016-02-06T08:53:16.385Z,4608
2016-02-06T08:54:16.359Z,4604
2016-02-06T08:55:16.331Z,4644
2016-02-06T08:56:16.302Z,4664
2016-02-06T08:57:16.289Z,4672
2016-02-06T08:58:16.261Z,4676
2016-02-06T08:59:16.232Z,4696
2016-02-06T09:00:16.219Z,4688
2016-02-06T09:01:16.269Z,4768
2016-02-06T09:02:16.167Z,4704
2016-02-06T09:03:16.153Z,4728
2016-02-06T09:04:16.135Z,4756
2016-02-06T09:05:16.091Z,4816
2016-02-06T09:06:16.078Z,4808
2016-02-06T09:07:16.050Z,4780
2016-02-06T09:08:16.038Z,4792
2016-02-06T09:09:16.009Z,4848
2016-02-06T09:10:15.982Z,4872
2016-02-06T09:11:15.953Z,4876
2016-02-06T09:12:15.924Z,4940
2016-02-06T09:13:15.911Z,4956
2016-02-06T09:14:15.883Z,4964
2016-02-06T09:15:15.854Z,4964
2016-02-06T09:16:15.827Z,5004
2016-02-06T09:17:15.814Z,5060
2016-02-06T09:18:15.785Z,5084
2016-02-06T09:19:15.756Z,5076
2016-02-06T09:20:15.750Z,5112
2016-02-06T09:21:15.705Z,5116
2016-02-06T09:22:15.707Z,5168
2016-02-06T09:23:15.664Z,5200
2016-02-06T09:24:15.636Z,5240
2016-02-06T09:25:15.624Z,5220
2016-02-06T09:26:15.595Z,5232
2016-02-06T09:27:15.582Z,5280
2016-02-06T09:28:15.570Z,5308
2016-02-06T09:29:15.557Z,5364
2016-02-06T09:30:15.514Z,5376
2016-02-06T09:31:15.484Z,5380
2016-02-06T09:32:15.472Z,5376
2016-02-06T09:33:15.428Z,5428
2016-02-06T09:34:15.431Z,5480
2016-02-06T09:35:15.387Z,5544
2016-02-06T09:36:15.374Z,5560
2016-02-06T09:37:15.346Z,5548
2016-02-06T09:38:15.318Z,5600
2016-02-06T09:39:15.304Z,5640
2016-02-06T09:40:15.276Z,5684
2016-02-06T09:41:15.248Z,5668
2016-02-06T09:42:15.235Z,5688
2016-02-06T09:43:15.208Z,5704
2016-02-06T09:44:15.179Z,5776
2016-02-06T09:45:15.150Z,5824
2016-02-06T09:46:15.138Z,5824
2016-02-06T09:47:15.109Z,5796
2016-02-06T09:48:15.112Z,5928
2016-02-06T09:49:15.067Z,6004
2016-02-06T09:50:15.039Z,6044
2016-02-06T09:51:15.027Z,6048
2016-02-06T09:52:14.999Z,6104
2016-02-06T09:53:15.001Z,6228
2016-02-06T09:54:14.957Z,6364
2016-02-06T09:55:14.944Z,6384
2016-02-06T09:56:14.916Z,6432
2016-02-06T09:57:14.903Z,6588
2016-02-06T09:58:14.874Z,6796
2016-02-06T09:59:14.908Z,7092
2016-02-06T10:00:14.817Z,7152
2016-02-06T10:01:14.913Z,7124
2016-02-06T10:02:14.767Z,7268
2016-02-06T10:03:14.754Z,7468
2016-02-06T10:04:14.726Z,7780
2016-02-06T10:05:14.713Z,7704
2016-02-06T10:06:14.715Z,7676
2016-02-06T10:07:14.652Z,7796
2016-02-06T10:08:14.655Z,8424
2016-02-06T10:09:14.613Z,9000
2016-02-06T10:10:14.630Z,9368
2016-02-06T10:11:14.571Z,9696
2016-02-06T10:12:14.541Z,9744
2016-02-06T10:13:14.623Z,9580
2016-02-06T10:14:14.502Z,9356
2016-02-06T10:15:14.489Z,9116
2016-02-06T10:16:14.460Z,8844
2016-02-06T10:17:14.450Z,8320
2016-02-06T10:18:14.406Z,8100
2016-02-06T10:19:14.409Z,8040
2016-02-06T10:20:14.364Z,7852
2016-02-06T10:21:14.351Z,7560
2016-02-06T10:22:14.342Z,8092
2016-02-06T10:23:14.315Z,8608
2016-02-06T10:24:14.285Z,8296
2016-02-06T10:25:14.257Z,8776
2016-02-06T10:26:14.244Z,7948
2016-02-06T10:27:14.214Z,9564
2016-02-06T10:28:14.203Z,8172
2016-02-06T10:29:14.190Z,11520
2016-02-06T10:30:14.146Z,9484
2016-02-06T10:31:14.134Z,10272
2016-02-06T10:32:14.106Z,9924
2016-02-06T10:33:14.093Z,11776
2016-02-06T10:34:14.064Z,12796
2016-02-06T10:35:14.036Z,11452
2016-02-06T10:36:14.039Z,9892
2016-02-06T10:37:13.995Z,12424
2016-02-06T10:38:13.983Z,12124
2016-02-06T10:39:13.953Z,13356
2016-02-06T10:40:13.956Z,13620
2016-02-06T10:41:13.911Z,11212
2016-02-06T10:42:13.899Z,14892
2016-02-06T10:43:13.887Z,13588
2016-02-06T10:44:13.859Z,13208
2016-02-06T10:45:13.830Z,14416
2016-02-06T10:46:13.833Z,14132
2016-02-06T10:47:13.788Z,15104
2016-02-06T10:48:13.763Z,13752
2016-02-06T10:49:13.752Z,13032
2016-02-06T10:50:13.723Z,11288
2016-02-06T10:51:13.710Z,10652
2016-02-06T10:52:13.682Z,11532
2016-02-06T10:53:13.684Z,12944
2016-02-06T10:54:13.641Z,12824
2016-02-06T10:55:13.627Z,14008
2016-02-06T10:56:13.600Z,15500
2016-02-06T10:57:13.602Z,15220
2016-02-06T10:58:13.558Z,15488
2016-02-06T10:59:13.549Z,13852
2016-02-06T11:00:13.521Z,14756
2016-02-06T11:01:13.523Z,16180
2016-02-06T11:02:13.479Z,15288
2016-02-06T11:03:13.468Z,12944
2016-02-06T11:04:13.439Z,12188
2016-02-06T11:05:13.269Z,13472
2016-02-06T11:06:13.397Z,15352
2016-02-06T11:07:13.384Z,16040
2016-02-06T11:08:13.356Z,16580
2016-02-06T11:09:13.346Z,18560
2016-02-06T11:10:13.333Z,18048
2016-02-06T11:11:13.305Z,17760
2016-02-06T11:12:13.292Z,17440
2016-02-06T11:13:13.263Z,14072
2016-02-06T11:14:13.250Z,11408
2016-02-06T11:15:13.222Z,13932
2016-02-06T11:16:13.210Z,15368
2016-02-06T11:17:13.180Z,13820
2016-02-06T11:18:13.168Z,12360
2016-02-06T11:19:13.154Z,10812
2016-02-06T11:20:13.127Z,9944
2016-02-06T11:21:13.113Z,10628
2016-02-06T11:22:13.085Z,12760
2016-02-06T11:23:13.071Z,15632
2016-02-06T11:24:13.044Z,17632
2016-02-06T11:25:13.016Z,17008
2016-02-06T11:26:13.003Z,16688
2016-02-06T11:27:13.005Z,14748
2016-02-06T11:28:12.973Z,12160
2016-02-06T11:29:12.962Z,11708
2016-02-06T11:30:12.919Z,13652
2016-02-06T11:31:12.921Z,17076
2016-02-06T11:32:12.893Z,19264
2016-02-06T11:33:12.864Z,20512
2016-02-06T11:34:12.851Z,17248
2016-02-06T11:35:12.840Z,17664
2016-02-06T11:36:12.810Z,17984
2016-02-06T11:37:12.786Z,18240
2016-02-06T11:38:12.788Z,16304
2016-02-06T11:39:12.761Z,15672
2016-02-06T11:40:12.748Z,14844
2016-02-06T11:41:12.719Z,16628
2016-02-06T11:42:12.706Z,18624
2016-02-06T11:43:12.677Z,16872
2016-02-06T11:44:12.664Z,18560
2016-02-06T11:45:12.652Z,18336
2016-02-06T11:46:12.624Z,15888
2016-02-06T11:47:12.610Z,17504
2016-02-06T11:48:12.596Z,17856
2016-02-06T11:49:12.569Z,14460
2016-02-06T11:50:12.556Z,13988
2016-02-06T11:51:12.528Z,14460
2016-02-06T11:52:12.531Z,17824
2016-02-06T11:53:12.330Z,15288
2016-02-06T11:54:12.474Z,15712
2016-02-06T11:55:12.461Z,13056
2016-02-06T11:56:12.291Z,11008
2016-02-06T11:57:12.419Z,11196
2016-02-06T11:58:12.391Z,9948
2016-02-06T11:59:12.378Z,9588
2016-02-06T12:00:12.367Z,9476
2016-02-06T12:01:12.338Z,8812
2016-02-06T12:02:12.340Z,7080
2016-02-06T12:03:12.297Z,7456
2016-02-06T12:04:12.300Z,8044
2016-02-06T12:05:12.272Z,8556
2016-02-06T12:06:11.524Z,10108
2016-02-06T12:07:12.230Z,11844
2016-02-06T12:08:12.218Z,13056
2016-02-06T12:09:12.189Z,13772
2016-02-06T12:10:12.177Z,13236
2016-02-06T12:11:12.152Z,14580
2016-02-06T12:12:12.138Z,17144
2016-02-06T12:13:12.110Z,16304
2016-02-06T12:14:12.112Z,14332
2016-02-06T12:15:12.083Z,14816
2016-02-06T12:16:12.076Z,13992
2016-02-06T12:17:12.047Z,14532
2016-02-06T12:18:12.018Z,13712
2016-02-06T12:19:12.007Z,13504
2016-02-06T12:20:11.978Z,12580
2016-02-06T12:21:11.966Z,13240
2016-02-06T12:22:11.936Z,14416
2016-02-06T12:23:11.924Z,14712
2016-02-06T12:24:11.912Z,15132
2016-02-06T12:25:11.900Z,14704
2016-02-06T12:26:11.871Z,15048
2016-02-06T12:27:11.843Z,14768
2016-02-06T12:28:11.769Z,13788
2016-02-06T12:29:11.819Z,14788
2016-02-06T12:30:11.790Z,13408
2016-02-06T12:31:11.778Z,13384
2016-02-06T12:32:11.750Z,13476
2016-02-06T12:33:11.737Z,14824
2016-02-06T12:34:11.723Z,17408
2016-02-06T12:35:11.695Z,15748
2016-02-06T12:36:11.681Z,15716
2016-02-06T12:37:11.671Z,15268
2016-02-06T12:38:11.641Z,12772
2016-02-06T12:39:11.629Z,12240
2016-02-06T12:40:11.600Z,12504
2016-02-06T12:41:11.588Z,12016
2016-02-06T12:42:11.574Z,11752
2016-02-06T12:43:11.562Z,12284
2016-02-06T12:44:11.532Z,11956
2016-02-06T12:45:11.520Z,11444
2016-02-06T12:46:11.492Z,11200
2016-02-06T12:47:11.478Z,10888
2016-02-06T12:48:11.450Z,11508
2016-02-06T12:49:11.437Z,12060
2016-02-06T12:50:11.424Z,10052
2016-02-06T12:51:11.397Z,9932
2016-02-06T12:52:11.386Z,10444
2016-02-06T12:53:11.372Z,10604
2016-02-06T12:54:11.344Z,10796
2016-02-06T12:55:11.331Z,11052
2016-02-06T12:56:11.334Z,11856
2016-02-06T12:57:11.293Z,12104
2016-02-06T12:58:11.264Z,12564
2016-02-06T12:59:11.250Z,12960
2016-02-06T13:00:11.241Z,13348
2016-02-06T13:01:11.211Z,13868
2016-02-06T13:02:11.199Z,14384
2016-02-06T13:03:11.170Z,14416
2016-02-06T13:04:11.157Z,14536
2016-02-06T13:05:11.145Z,14644
2016-02-06T13:06:11.148Z,14744
2016-02-06T13:07:11.103Z,14784
2016-02-06T13:08:11.075Z,14832
2016-02-06T13:09:11.062Z,14792
2016-02-06T13:10:11.068Z,14732
2016-02-06T13:11:11.023Z,14652
2016-02-06T13:12:10.995Z,14700
2016-02-06T13:13:10.997Z,14660
2016-02-06T13:14:10.969Z,14824
2016-02-06T13:15:10.956Z,15064
2016-02-06T13:16:10.944Z,14924
2016-02-06T13:17:10.914Z,14924
2016-02-06T13:18:10.891Z,14960
2016-02-06T13:19:10.877Z,16112
2016-02-06T13:20:10.849Z,16008
2016-02-06T13:21:10.852Z,16224
2016-02-06T13:22:10.824Z,16456
2016-02-06T13:23:10.811Z,16332
2016-02-06T13:24:10.799Z,17376
2016-02-06T13:25:10.801Z,16688
2016-02-06T13:26:10.744Z,16316
2016-02-06T13:27:10.731Z,16232
2016-02-06T13:28:10.719Z,16292
2016-02-06T13:29:10.690Z,16032
2016-02-06T13:30:10.677Z,15704
2016-02-06T13:31:10.667Z,15752
2016-02-06T13:32:10.655Z,15404
2016-02-06T13:33:10.625Z,15016
2016-02-06T13:34:10.612Z,14952
2016-02-06T13:35:10.600Z,15424
2016-02-06T13:36:10.575Z,14940
2016-02-06T13:37:10.561Z,14208
2016-02-06T13:38:10.533Z,14312
2016-02-06T13:39:10.540Z,13580
2016-02-06T13:40:10.511Z,13692
2016-02-06T13:41:10.482Z,13216
2016-02-06T13:42:10.469Z,12588
2016-02-06T13:43:10.456Z,11984
2016-02-06T13:44:10.429Z,11348
2016-02-06T13:45:10.415Z,10832
2016-02-06T13:46:10.403Z,10588
2016-02-06T13:47:10.390Z,10308
2016-02-06T13:48:10.361Z,9824
2016-02-06T13:49:10.332Z,9440
2016-02-06T13:50:10.335Z,9156
2016-02-06T13:51:10.338Z,8924
2016-02-06T13:52:10.406Z,8656
2016-02-06T13:53:10.268Z,8108
2016-02-06T13:54:10.270Z,8348